Latest Weather Observations for Tasman Island

IDT60901

Issued at 4:35 am EST Friday 25 April 2014 (issued every 10 minutes, with the page automatically refreshed every 10 minutes)

About weather observations | Map of Hobart area stations | Latest observations for Hobart area | Other Formats
Station Details ID: 094155 Name: TASMAN ISLAND Lat: -43.24 Lon: 148.00 Height: 240.0 m
Data from the previous 72 hours. | See also: Recent months at Tasman Island
Date/Time
EST
Tmp

°C
App
Tmp
°C
Dew
Point
°C
Rel
Hum
%
Delta-T

°C
Wind Press
QNH
hPa
Press
MSL
hPa
Rain
since
9 am
mm
Dir
 
Spd
km/h
Gust
km/h
Spd
kts
Gust
kts
25/04:30am 7.6 2.2 1.5 65 2.5 WNW 19 39 10 21 1017.3 - 0.6
25/04:00am 7.7 2.1 1.3 64 2.6 WNW 20 35 11 19 1017.1 1017.1 0.6
25/03:30am 8.0 2.6 1.4 63 2.7 NW 19 33 10 18 1016.8 - 0.6
25/03:00am 8.1 3.5 1.3 62 2.8 NW 15 32 8 17 1016.4 1016.4 0.6
25/02:30am 8.2 1.8 0.9 60 3.0 NW 24 37 13 20 1016.4 - 0.6
25/02:00am 8.3 3.2 1.0 60 3.0 W 17 39 9 21 1016.4 1016.4 0.6
25/01:30am 8.2 0.8 1.8 64 2.7 WNW 30 54 16 29 1016.4 - 0.6
25/01:01am 8.3 1.4 2.3 66 2.5 WNW 28 50 15 27 1016.2 - 0.6
25/01:00am 8.2 0.5 2.2 66 2.5 WNW 32 50 17 27 1016.2 1016.2 0.6
25/12:50am 8.0 1.1 2.7 69 2.3 NW 28 50 15 27 1016.3 - 0.6
25/12:30am 7.8 4.1 2.3 68 2.3 W 11 35 6 19 1016.1 - 0.6
25/12:00am 8.0 4.0 2.9 70 2.2 WNW 13 37 7 20 1016.1 1016.1 0.6
 
Date/Time
EST
Tmp

°C
App
Tmp
°C
Dew
Point
°C
Rel
Hum
%
Delta-T

°C
Wind Press
QNH
hPa
Press
MSL
hPa
Rain
since
9 am
mm
Dir
 
Spd
km/h
Gust
km/h
Spd
kts
Gust
kts
24/11:30pm 8.1 4.5 3.0 70 2.2 W 11 37 6 20 1015.9 - 0.6
24/11:00pm 8.0 4.4 3.1 71 2.1 NW 11 37 6 20 1016.0 1016.0 0.6
24/10:30pm 8.0 4.0 2.9 70 2.2 WNW 13 33 7 18 1015.7 - 0.6
24/10:00pm 8.1 4.9 3.0 70 2.2 NW 9 37 5 20 1015.7 1015.6 0.6
24/09:30pm 8.1 4.8 2.6 68 2.3 WSW 9 35 5 19 1015.0 - 0.6
24/09:00pm 8.3 5.1 3.2 70 2.2 SE 9 28 5 15 1014.6 1014.5 0.6
24/08:30pm 7.8 4.6 3.3 73 1.9 SE 9 28 5 15 1014.0 - 0.6
24/08:00pm 7.8 4.2 2.7 70 2.2 E 11 39 6 21 1013.2 1013.2 0.6
24/07:30pm 7.8 3.3 2.3 68 2.3 NNW 15 41 8 22 1012.9 - 0.6
24/07:00pm 7.7 4.1 3.0 72 2.0 E 11 35 6 19 1012.4 1012.4 0.6
24/06:30pm 7.9 3.2 3.0 71 2.1 NNW 17 39 9 21 1011.8 - 0.6
24/06:00pm 7.5 3.4 2.4 70 2.1 WSW 13 44 7 24 1011.2 1011.1 0.6
24/05:30pm 7.8 3.7 2.3 68 2.3 W 13 39 7 21 1010.2 - 0.4
24/05:00pm 8.3 4.6 2.5 67 2.5 W 11 41 6 22 1009.6 1009.6 0.4
24/04:30pm 8.0 2.4 3.5 73 2.0 NW 22 41 12 22 1009.4 - 0.4
24/04:08pm 7.4 0.6 3.3 75 1.8 WSW 28 52 15 28 1008.8 - 0.4
24/04:00pm 8.5 2.4 2.5 66 2.6 W 24 67 13 36 1008.7 1008.6 0.4
24/03:30pm 8.2 5.2 2.2 66 2.5 W 7 28 4 15 1008.2 - 0.4
24/03:00pm 8.2 4.2 3.1 70 2.2 W 13 37 7 20 1007.7 1007.6 0.4
24/02:36pm 8.4 1.2 0.6 58 3.2 W 28 65 15 35 1007.0 - 0.2
24/02:30pm 8.1 3.4 1.0 61 2.9 ESE 15 50 8 27 1006.7 - 0.2
24/02:06pm 8.7 1.5 0.7 57 3.3 WSW 28 63 15 34 1006.1 - 0.2
24/02:00pm 8.9 2.2 1.6 60 3.1 WSW 26 61 14 33 1006.0 1005.9 0.2
24/01:33pm 8.6 1.9 3.4 70 2.3 WSW 28 65 15 35 1005.5 - 0.2
24/01:30pm 8.9 2.6 3.5 69 2.4 WSW 26 65 14 35 1005.5 - 0.2
24/01:00pm 8.2 0.6 2.9 69 2.3 SW 32 76 17 41 1005.0 1004.9 0.2
24/12:52pm 8.5 1.7 3.1 69 2.3 SW 28 70 15 38 1005.0 - 0.2
24/12:30pm 9.0 5.3 2.6 64 2.7 WSW 11 33 6 18 1005.2 - 0.2
24/12:00pm 9.5 5.8 4.3 70 2.3 W 13 43 7 23 1005.1 1005.0 0.2
24/11:30am 8.2 3.7 2.0 65 2.6 WNW 15 39 8 21 1004.3 - 0.2
24/11:00am 9.0 5.3 4.2 72 2.1 N 13 46 7 25 1003.8 1003.7 0.2
24/10:30am 8.9 4.0 4.9 76 1.8 N 20 48 11 26 1003.1 - 0.2
24/10:00am 9.3 5.8 3.7 68 2.5 WSW 11 37 6 20 1002.4 1002.3 0.0
24/09:30am 9.2 4.1 4.2 71 2.2 WSW 20 59 11 32 1001.6 - 0.0
24/09:00am 9.9 7.1 5.3 73 2.1 NNE 9 32 5 17 1001.7 1001.5 2.2
24/08:30am 9.0 5.9 5.4 78 1.6 W 11 35 6 19 1001.6 - 2.2
24/08:00am 9.2 5.0 5.8 79 1.6 W 17 48 9 26 1001.1 1001.0 2.2
24/07:30am 9.4 6.4 5.9 79 1.6 WNW 11 35 6 19 1000.2 - 2.2
24/07:00am 9.0 5.2 5.7 80 1.5 W 15 43 8 23 999.4 999.3 2.2
24/06:30am 8.2 5.0 6.8 91 0.7 W 13 28 7 15 999.4 - 2.2
24/06:00am 8.9 5.8 5.6 80 1.5 NE 11 37 6 20 999.9 999.8 0.8
24/05:30am 9.4 6.9 8.2 92 0.6 NW 11 39 6 21 999.7 - 0.8
24/05:10am 10.7 6.5 7.6 81 1.5 WSW 19 37 10 20 999.6 - 0.4
24/05:00am 11.6 3.2 7.3 75 2.1 NW 41 65 22 35 999.3 999.2 0.0
24/04:30am 13.4 5.4 5.8 60 3.6 N 37 61 20 33 998.4 - 0.0
24/04:00am 13.2 6.7 4.9 57 3.9 N 28 56 15 30 998.0 997.8 0.0
24/03:30am 13.1 5.8 5.3 59 3.7 NNW 33 61 18 33 998.5 - 0.0
24/03:07am 12.6 4.7 6.0 64 3.2 NNW 37 78 20 42 999.0 - 0.0
24/03:00am 12.8 5.0 6.8 67 2.9 NNW 37 57 20 31 999.3 999.2 0.0
24/02:30am 12.9 2.4 5.8 62 3.4 NNW 50 72 27 39 999.6 - 0.0
24/02:00am 12.8 2.7 5.5 61 3.5 NNW 48 70 26 38 1000.3 1000.2 0.0
24/01:30am 12.7 3.6 5.8 63 3.3 NNW 43 70 23 38 1000.9 - 0.0
24/01:00am 12.4 5.8 6.2 66 3.0 NNW 30 54 16 29 1002.0 1001.9 0.0
24/12:57am 12.4 6.2 6.2 66 3.0 NNW 28 54 15 29 1002.2 - 0.0
24/12:30am 12.2 6.5 6.9 70 2.6 N 26 44 14 24 1002.8 - 0.0
24/12:00am 12.3 6.9 6.4 67 2.8 N 24 48 13 26 1003.5 1003.4 0.0
 
Date/Time
EST
Tmp

°C
App
Tmp
°C
Dew
Point
°C
Rel
Hum
%
Delta-T

°C
Wind Press
QNH
hPa
Press
MSL
hPa
Rain
since
9 am
mm
Dir
 
Spd
km/h
Gust
km/h
Spd
kts
Gust
kts
23/11:53pm 12.2 6.1 6.5 68 2.7 N 28 48 15 26 1003.6 - 0.0
23/11:30pm 12.1 5.5 5.9 66 2.9 N 30 46 16 25 1003.8 - 0.0
23/11:08pm 12.0 6.0 7.1 72 2.4 N 28 54 15 29 1004.4 - 0.0
23/11:00pm 11.9 6.1 6.4 69 2.6 N 26 46 14 25 1004.6 1004.5 0.0
23/10:31pm 12.3 5.8 6.4 67 2.8 N 30 50 16 27 1005.0 - 0.0
23/10:30pm 12.4 5.4 6.2 66 3.0 N 32 50 17 27 1005.0 - 0.0
23/10:08pm 12.2 6.1 6.5 68 2.7 N 28 50 15 27 1005.4 - 0.0
23/10:00pm 12.2 6.8 6.5 68 2.8 N 24 41 13 22 1005.8 1005.7 0.0
23/09:30pm 12.3 6.5 6.4 67 2.8 N 26 39 14 21 1006.1 - 0.0
23/09:00pm 12.5 6.7 6.1 65 3.1 N 26 35 14 19 1006.5 1006.4 0.0
23/08:30pm 12.6 6.8 6.2 65 3.1 N 26 37 14 20 1006.7 - 0.0
23/08:00pm 12.5 6.3 6.1 65 3.1 N 28 41 15 22 1007.1 1007.0 0.0
23/07:30pm 12.8 7.8 6.4 65 3.1 N 22 35 12 19 1007.3 - 0.0
23/07:00pm 12.5 8.8 6.5 67 2.9 N 15 26 8 14 1007.5 1007.4 0.0
23/06:30pm 12.0 8.4 6.7 70 2.6 N 15 24 8 13 1008.0 - 0.0
23/06:00pm 12.7 8.3 6.7 67 2.9 N 19 28 10 15 1008.1 1008.0 0.0
23/05:30pm 13.0 8.4 6.4 64 3.2 N 20 30 11 16 1008.1 - 0.0
23/05:00pm 13.2 8.7 5.9 61 3.5 N 19 30 10 16 1008.3 1008.2 0.0
23/04:30pm 13.2 8.5 5.9 61 3.5 N 20 28 11 15 1008.6 - 0.0
23/04:00pm 13.5 8.4 5.9 60 3.7 N 22 28 12 15 1009.0 1009.0 0.0
23/03:30pm 13.5 8.8 5.9 60 3.6 N 20 28 11 15 1009.1 - 0.0
23/03:00pm 13.7 10.0 6.3 61 3.6 NNW 15 24 8 13 1009.6 1009.6 0.0
23/02:30pm 13.5 9.7 5.7 59 3.7 N 15 24 8 13 1009.8 - 0.0
23/02:00pm 13.9 10.5 5.8 58 3.9 N 13 26 7 14 1010.4 1010.3 0.0
23/01:30pm 14.4 11.7 5.5 55 4.3 N 9 20 5 11 1010.7 - 0.0
23/01:00pm 14.4 10.1 5.2 54 4.4 NNW 17 26 9 14 1011.0 1010.9 0.0
23/12:30pm 13.7 8.7 4.6 54 4.3 NNW 20 30 11 16 1011.2 - 0.0
23/12:00pm 13.8 9.4 4.9 55 4.2 NNW 17 28 9 15 1011.6 1011.5 0.0
23/11:30am 14.0 10.5 5.4 56 4.1 NNW 13 19 7 10 1012.0 - 0.0
23/11:00am 13.6 9.2 5.0 56 4.1 N 17 28 9 15 1012.3 1012.2 0.0
23/10:30am 13.7 9.2 6.1 60 3.7 N 19 30 10 16 1012.6 - 0.0
23/10:00am 12.7 7.9 5.4 61 3.4 NNW 20 32 11 17 1013.3 1013.3 0.0
23/09:30am 12.2 7.3 5.1 62 3.3 NNW 20 26 11 14 1013.5 - 0.0
23/09:00am 11.6 6.5 4.3 61 3.3 NNW 20 28 11 15 1013.7 1013.7 0.0
23/08:30am 12.0 7.2 4.5 60 3.4 NNW 19 26 10 14 1013.7 - 0.0
23/08:00am 10.5 6.9 4.9 68 2.6 N 13 19 7 10 1013.6 1013.6 0.0
23/07:30am 10.2 7.1 5.4 72 2.2 NNW 11 19 6 10 1013.7 - 0.0
23/07:00am 9.9 5.4 4.1 67 2.6 NW 17 24 9 13 1013.5 1013.5 0.0
23/06:30am 9.8 6.2 5.2 73 2.1 NW 13 19 7 10 1013.6 - 0.0
23/06:00am 9.6 5.9 4.6 71 2.3 NNW 13 20 7 11 1013.5 1013.5 0.0
23/05:30am 9.7 5.7 4.7 71 2.3 NNW 15 20 8 11 1013.5 - 0.0
23/05:00am 10.4 5.5 3.9 64 2.9 NW 19 28 10 15 1013.4 1013.4 0.0
23/04:30am 10.6 6.4 3.9 63 3.0 NW 15 28 8 15 1013.3 - 0.0
23/04:00am 10.5 6.4 4.2 65 2.8 WNW 15 24 8 13 1013.1 1013.1 0.0
23/03:30am 10.3 5.4 4.2 66 2.7 NW 19 26 10 14 1013.0 - 0.0
23/03:00am 10.6 5.8 4.5 66 2.8 WNW 19 30 10 16 1012.9 1012.9 0.0
23/02:30am 10.6 6.0 5.4 70 2.4 WNW 19 32 10 17 1013.0 - 0.0
23/02:00am 11.0 4.9 4.9 66 2.8 WNW 26 41 14 22 1013.0 1013.0 0.0
23/01:30am 11.1 5.8 4.8 65 2.9 WNW 22 39 12 21 1012.9 - 0.0
23/01:00am 11.1 8.7 4.3 63 3.1 WNW 6 22 3 12 1012.8 1012.8 0.0
23/12:30am 11.1 8.6 4.6 64 3.0 SSW 7 22 4 12 1012.7 - 0.0
23/12:00am 11.5 6.5 4.7 63 3.1 WNW 20 39 11 21 1012.5 1012.5 0.0
 
Date/Time
EST
Tmp

°C
App
Tmp
°C
Dew
Point
°C
Rel
Hum
%
Delta-T

°C
Wind Press
QNH
hPa
Press
MSL
hPa
Rain
since
9 am
mm
Dir
 
Spd
km/h
Gust
km/h
Spd
kts
Gust
kts
22/11:30pm 11.6 7.8 3.9 59 3.5 NW 13 32 7 17 1012.8 - 0.0
22/11:00pm 11.5 7.1 4.7 63 3.1 WNW 17 35 9 19 1012.4 1012.4 0.0
22/10:30pm 11.7 8.3 4.2 60 3.4 WNW 11 30 6 16 1012.8 - 0.0
22/10:00pm 11.7 7.9 4.0 59 3.5 WNW 13 32 7 17 1012.1 1012.0 0.0
22/09:30pm 11.8 8.1 4.5 61 3.4 NW 13 39 7 21 1011.4 - 0.0
22/09:15pm 11.8 5.4 5.0 63 3.2 NW 28 46 15 25 1011.5 - 0.0
22/09:00pm 12.2 8.8 3.9 57 3.8 WNW 11 30 6 16 1012.0 1011.9 0.0
22/08:30pm 11.8 7.7 6.3 69 2.6 ESE 17 28 9 15 1011.1 - 0.0
22/08:00pm 12.2 9.3 6.3 67 2.8 NNW 11 44 6 24 1010.8 1010.7 0.0
22/07:30pm 12.8 9.1 6.2 64 3.2 WSW 15 35 8 19 1010.6 - 0.0
22/07:00pm 13.1 10.1 4.3 55 4.1 W 9 33 5 18 1010.4 1010.3 0.0
22/06:30pm 13.1 9.8 4.3 55 4.1 W 11 33 6 18 1009.7 - 0.0
22/06:00pm 12.7 6.7 3.6 54 4.1 NW 24 39 13 21 1009.3 1009.3 0.0
22/05:30pm 12.9 8.8 4.1 55 4.0 NW 15 43 8 23 1008.9 - 0.0
22/05:00pm 13.2 9.3 3.6 52 4.4 NW 13 43 7 23 1008.6 1008.5 0.0
22/04:30pm 13.5 8.4 4.1 53 4.3 WSW 20 52 11 28 1008.0 - 0.0
22/04:00pm 13.4 9.6 3.8 52 4.4 E 13 35 7 19 1007.2 1007.1 0.0
22/03:30pm 13.8 10.1 4.4 53 4.4 E 13 35 7 19 1007.2 - 0.0
22/03:00pm 13.9 8.0 3.9 51 4.6 NNW 24 41 13 22 1007.6 1007.5 0.0
22/02:30pm 14.0 10.8 8.6 70 2.8 W 15 33 8 18 1007.5 - 0.0
22/02:00pm 13.6 9.8 9.1 74 2.3 WSW 19 35 10 19 1007.2 1007.1 0.0
22/01:30pm 13.7 10.9 9.9 78 2.0 SW 15 35 8 19 1006.6 - 0.0
22/01:00pm 12.9 7.7 10.3 84 1.4 SSW 28 59 15 32 1006.3 1006.2 0.0
22/12:44pm 12.5 7.2 10.0 85 1.3 SSW 28 57 15 31 1006.3 - 0.0
22/12:30pm 12.9 8.2 10.6 86 1.2 SSW 26 61 14 33 1006.3 - 0.0
22/12:07pm 13.6 8.3 10.0 79 1.9 SSW 28 52 15 28 1006.2 - 0.0
22/12:00pm 16.2 14.7 9.2 63 3.7 WSW 7 22 4 12 1006.4 1006.3 0.0
22/11:30am 15.9 13.8 9.6 66 3.3 W 11 24 6 13 1006.3 - 0.0
22/11:00am 15.9 13.0 9.8 67 3.2 WNW 15 24 8 13 1005.9 1005.8 0.0
22/10:30am 15.2 12.3 9.6 69 2.9 WNW 15 22 8 12 1005.6 - 0.0
22/10:00am 14.9 12.5 9.9 72 2.6 W 13 28 7 15 1005.6 1005.6 0.0
22/09:30am 15.4 13.5 9.1 66 3.3 W 9 19 5 10 1005.4 - 0.0
22/09:00am 15.3 11.9 9.0 66 3.3 WNW 17 32 9 17 1005.4 1005.4 3.6
22/08:30am 15.1 11.3 9.2 68 3.1 WNW 19 28 10 15 1005.4 - 3.6
22/08:00am 15.4 12.4 9.3 67 3.2 WNW 15 24 8 13 1005.3 1005.3 3.6
22/07:30am 15.5 10.7 8.7 64 3.5 WNW 24 35 13 19 1004.6 - 3.6
22/07:00am 15.3 9.9 9.4 68 3.1 NW 28 37 15 20 1004.4 1004.3 3.6
22/06:30am 15.3 9.6 9.9 70 2.8 NW 30 43 16 23 1004.1 - 3.6
22/06:00am 15.0 9.8 10.4 74 2.5 NNW 28 46 15 25 1003.5 1003.4 3.6
22/05:58am 14.8 9.7 10.6 76 2.2 NNW 28 46 15 25 1003.6 - 3.6
22/05:30am 15.0 10.0 11.0 77 2.2 NNW 28 39 15 21 1003.5 - 3.6
22/05:00am 14.9 8.9 10.7 76 2.3 NNW 33 67 18 36 1003.3 1003.2 3.6

Latest Capital City Observations: Canberra | Sydney | Melbourne | Brisbane | Adelaide | Perth | Hobart | Darwin

Other Formats:

Comma delimited format used in spreadsheet applications
http://www.bom.gov.au/fwo/IDT60901/IDT60901.95986.axf

JavaScript Object Notation format (JSON) in row-major order
http://www.bom.gov.au/fwo/IDT60901/IDT60901.95986.json